sensor_id;sensor_type;location;lat;lon;timestamp;P1;durP1;ratioP1;P2;durP2;ratioP2
787;SDS011;16074;42.708;23.312;2023-05-02T00:01:32;7.47;;;6.97;;
787;SDS011;16074;42.708;23.312;2023-05-02T00:04:02;7.90;;;7.30;;
787;SDS011;16074;42.708;23.312;2023-05-02T00:06:30;7.82;;;7.22;;
787;SDS011;16074;42.708;23.312;2023-05-02T00:08:59;8.73;;;8.07;;
787;SDS011;16074;42.708;23.312;2023-05-02T00:11:27;7.60;;;7.00;;
787;SDS011;16074;42.708;23.312;2023-05-02T00:13:55;7.97;;;7.38;;
787;SDS011;16074;42.708;23.312;2023-05-02T00:16:23;8.27;;;7.60;;
787;SDS011;16074;42.708;23.312;2023-05-02T00:18:54;7.03;;;6.43;;
787;SDS011;16074;42.708;23.312;2023-05-02T00:21:22;8.50;;;7.90;;
787;SDS011;16074;42.708;23.312;2023-05-02T00:23:50;7.90;;;7.30;;
787;SDS011;16074;42.708;23.312;2023-05-02T00:26:19;7.68;;;7.18;;
787;SDS011;16074;42.708;23.312;2023-05-02T00:28:47;7.18;;;6.68;;
787;SDS011;16074;42.708;23.312;2023-05-02T00:31:15;7.20;;;6.60;;
787;SDS011;16074;42.708;23.312;2023-05-02T00:33:44;8.13;;;7.40;;
787;SDS011;16074;42.708;23.312;2023-05-02T00:36:14;9.02;;;8.32;;
787;SDS011;16074;42.708;23.312;2023-05-02T00:38:43;8.00;;;7.40;;
787;SDS011;16074;42.708;23.312;2023-05-02T00:41:11;9.20;;;8.50;;
787;SDS011;16074;42.708;23.312;2023-05-02T00:43:40;8.60;;;7.90;;
787;SDS011;16074;42.708;23.312;2023-05-02T00:46:08;8.27;;;7.68;;
787;SDS011;16074;42.708;23.312;2023-05-02T00:48:38;8.55;;;7.85;;
787;SDS011;16074;42.708;23.312;2023-05-02T00:51:06;8.65;;;7.80;;
787;SDS011;16074;42.708;23.312;2023-05-02T00:53:39;9.25;;;8.55;;
787;SDS011;16074;42.708;23.312;2023-05-02T00:56:07;8.93;;;8.23;;
787;SDS011;16074;42.708;23.312;2023-05-02T00:58:36;9.32;;;8.63;;
787;SDS011;16074;42.708;23.312;2023-05-02T01:01:09;9.13;;;8.35;;
787;SDS011;16074;42.708;23.312;2023-05-02T01:03:56;7.55;;;7.05;;
787;SDS011;16074;42.708;23.312;2023-05-02T01:06:47;7.82;;;7.22;;
787;SDS011;16074;42.708;23.312;2023-05-02T01:09:33;8.77;;;8.07;;
787;SDS011;16074;42.708;23.312;2023-05-02T01:12:09;8.38;;;7.80;;
787;SDS011;16074;42.708;23.312;2023-05-02T01:14:44;9.55;;;8.63;;
787;SDS011;16074;42.708;23.312;2023-05-02T01:17:17;8.48;;;7.88;;
787;SDS011;16074;42.708;23.312;2023-05-02T01:19:49;8.90;;;8.27;;
787;SDS011;16074;42.708;23.312;2023-05-02T01:22:19;8.65;;;8.02;;
787;SDS011;16074;42.708;23.312;2023-05-02T01:24:53;8.73;;;8.02;;
787;SDS011;16074;42.708;23.312;2023-05-02T01:27:33;8.60;;;7.90;;
787;SDS011;16074;42.708;23.312;2023-05-02T01:30:09;8.82;;;8.23;;
787;SDS011;16074;42.708;23.312;2023-05-02T01:32:39;8.00;;;7.40;;
787;SDS011;16074;42.708;23.312;2023-05-02T01:35:10;9.13;;;8.35;;
787;SDS011;16074;42.708;23.312;2023-05-02T01:37:43;9.00;;;8.40;;
787;SDS011;16074;42.708;23.312;2023-05-02T01:40:13;9.68;;;8.77;;
787;SDS011;16074;42.708;23.312;2023-05-02T01:42:45;8.80;;;8.07;;
787;SDS011;16074;42.708;23.312;2023-05-02T01:45:16;9.70;;;8.90;;
787;SDS011;16074;42.708;23.312;2023-05-02T01:47:45;8.38;;;7.78;;
787;SDS011;16074;42.708;23.312;2023-05-02T01:50:16;8.80;;;8.10;;
787;SDS011;16074;42.708;23.312;2023-05-02T01:52:47;8.82;;;8.02;;
787;SDS011;16074;42.708;23.312;2023-05-02T01:55:18;8.32;;;7.80;;
787;SDS011;16074;42.708;23.312;2023-05-02T01:57:47;8.88;;;8.20;;
787;SDS011;16074;42.708;23.312;2023-05-02T02:00:18;7.80;;;7.20;;
787;SDS011;16074;42.708;23.312;2023-05-02T02:02:48;9.95;;;9.15;;
787;SDS011;16074;42.708;23.312;2023-05-02T02:05:19;9.02;;;8.43;;
787;SDS011;16074;42.708;23.312;2023-05-02T02:07:50;9.00;;;8.05;;
787;SDS011;16074;42.708;23.312;2023-05-02T02:10:19;9.43;;;8.73;;
787;SDS011;16074;42.708;23.312;2023-05-02T02:12:51;9.40;;;8.70;;
787;SDS011;16074;42.708;23.312;2023-05-02T02:15:26;7.90;;;7.30;;
787;SDS011;16074;42.708;23.312;2023-05-02T02:17:56;9.13;;;8.32;;
787;SDS011;16074;42.708;23.312;2023-05-02T02:20:27;9.05;;;8.30;;
787;SDS011;16074;42.708;23.312;2023-05-02T02:22:58;8.43;;;7.63;;
787;SDS011;16074;42.708;23.312;2023-05-02T02:25:30;9.25;;;8.45;;
787;SDS011;16074;42.708;23.312;2023-05-02T02:28:00;7.95;;;7.45;;
787;SDS011;16074;42.708;23.312;2023-05-02T02:30:30;9.85;;;9.05;;
787;SDS011;16074;42.708;23.312;2023-05-02T02:32:58;9.57;;;8.77;;
787;SDS011;16074;42.708;23.312;2023-05-02T02:35:28;10.13;;;9.13;;
787;SDS011;16074;42.708;23.312;2023-05-02T02:38:01;9.77;;;9.07;;
787;SDS011;16074;42.708;23.312;2023-05-02T02:40:43;8.25;;;7.65;;
787;SDS011;16074;42.708;23.312;2023-05-02T02:43:16;9.20;;;8.40;;
787;SDS011;16074;42.708;23.312;2023-05-02T02:45:54;9.25;;;8.55;;
787;SDS011;16074;42.708;23.312;2023-05-02T02:48:31;9.48;;;8.68;;
787;SDS011;16074;42.708;23.312;2023-05-02T02:51:13;9.70;;;8.98;;
787;SDS011;16074;42.708;23.312;2023-05-02T02:53:51;10.18;;;9.40;;
787;SDS011;16074;42.708;23.312;2023-05-02T02:56:37;10.68;;;9.77;;
787;SDS011;16074;42.708;23.312;2023-05-02T02:59:11;9.35;;;8.65;;
787;SDS011;16074;42.708;23.312;2023-05-02T03:01:45;10.73;;;9.70;;
787;SDS011;16074;42.708;23.312;2023-05-02T03:04:19;9.25;;;8.45;;
787;SDS011;16074;42.708;23.312;2023-05-02T03:06:49;10.18;;;9.45;;
787;SDS011;16074;42.708;23.312;2023-05-02T03:09:18;10.48;;;9.57;;
787;SDS011;16074;42.708;23.312;2023-05-02T03:11:49;10.45;;;9.55;;
787;SDS011;16074;42.708;23.312;2023-05-02T03:14:17;10.27;;;9.38;;
787;SDS011;16074;42.708;23.312;2023-05-02T03:16:47;9.02;;;8.43;;
787;SDS011;16074;42.708;23.312;2023-05-02T03:19:16;11.15;;;10.30;;
787;SDS011;16074;42.708;23.312;2023-05-02T03:21:45;10.88;;;9.95;;
787;SDS011;16074;42.708;23.312;2023-05-02T03:24:17;10.68;;;9.88;;
787;SDS011;16074;42.708;23.312;2023-05-02T03:26:47;10.20;;;9.30;;
787;SDS011;16074;42.708;23.312;2023-05-02T03:29:21;10.30;;;9.50;;
787;SDS011;16074;42.708;23.312;2023-05-02T03:31:51;10.98;;;10.07;;
787;SDS011;16074;42.708;23.312;2023-05-02T03:34:21;10.90;;;9.90;;
787;SDS011;16074;42.708;23.312;2023-05-02T03:36:51;10.93;;;10.13;;
787;SDS011;16074;42.708;23.312;2023-05-02T03:39:19;11.65;;;10.48;;
787;SDS011;16074;42.708;23.312;2023-05-02T03:41:48;10.85;;;9.85;;
787;SDS011;16074;42.708;23.312;2023-05-02T03:44:19;11.52;;;10.43;;
787;SDS011;16074;42.708;23.312;2023-05-02T03:46:47;12.35;;;11.27;;
787;SDS011;16074;42.708;23.312;2023-05-02T03:49:17;12.00;;;11.00;;
787;SDS011;16074;42.708;23.312;2023-05-02T03:51:47;11.93;;;10.77;;
787;SDS011;16074;42.708;23.312;2023-05-02T03:54:21;11.57;;;10.57;;
787;SDS011;16074;42.708;23.312;2023-05-02T03:56:52;13.00;;;11.80;;
787;SDS011;16074;42.708;23.312;2023-05-02T03:59:28;11.52;;;10.52;;
787;SDS011;16074;42.708;23.312;2023-05-02T04:02:01;12.00;;;11.00;;
787;SDS011;16074;42.708;23.312;2023-05-02T04:04:38;10.88;;;10.07;;
787;SDS011;16074;42.708;23.312;2023-05-02T04:07:10;12.50;;;11.35;;
787;SDS011;16074;42.708;23.312;2023-05-02T04:09:46;12.60;;;11.30;;
787;SDS011;16074;42.708;23.312;2023-05-02T04:12:14;12.48;;;11.25;;
787;SDS011;16074;42.708;23.312;2023-05-02T04:14:46;11.40;;;10.50;;
787;SDS011;16074;42.708;23.312;2023-05-02T04:17:15;11.60;;;10.60;;
787;SDS011;16074;42.708;23.312;2023-05-02T04:19:48;19.10;;;10.90;;
787;SDS011;16074;42.708;23.312;2023-05-02T04:22:19;11.68;;;10.77;;
787;SDS011;16074;42.708;23.312;2023-05-02T04:24:57;11.85;;;10.85;;
787;SDS011;16074;42.708;23.312;2023-05-02T04:27:26;10.90;;;9.93;;
787;SDS011;16074;42.708;23.312;2023-05-02T04:29:56;15.40;;;11.15;;
787;SDS011;16074;42.708;23.312;2023-05-02T04:32:25;13.50;;;12.30;;
787;SDS011;16074;42.708;23.312;2023-05-02T04:34:56;11.75;;;10.65;;
787;SDS011;16074;42.708;23.312;2023-05-02T04:37:25;12.57;;;11.43;;
787;SDS011;16074;42.708;23.312;2023-05-02T04:39:53;13.07;;;11.75;;
787;SDS011;16074;42.708;23.312;2023-05-02T04:42:24;13.30;;;11.98;;
787;SDS011;16074;42.708;23.312;2023-05-02T04:44:59;13.00;;;11.90;;
787;SDS011;16074;42.708;23.312;2023-05-02T04:47:28;11.73;;;10.50;;
787;SDS011;16074;42.708;23.312;2023-05-02T04:49:58;12.45;;;11.13;;
787;SDS011;16074;42.708;23.312;2023-05-02T04:52:27;11.23;;;10.13;;
787;SDS011;16074;42.708;23.312;2023-05-02T04:54:57;11.27;;;10.38;;
787;SDS011;16074;42.708;23.312;2023-05-02T04:57:26;10.52;;;9.60;;
787;SDS011;16074;42.708;23.312;2023-05-02T04:59:57;10.35;;;9.55;;
787;SDS011;16074;42.708;23.312;2023-05-02T05:02:27;11.90;;;10.90;;
787;SDS011;16074;42.708;23.312;2023-05-02T05:04:58;11.05;;;9.77;;
787;SDS011;16074;42.708;23.312;2023-05-02T05:07:28;10.00;;;9.10;;
787;SDS011;16074;42.708;23.312;2023-05-02T05:09:57;10.25;;;9.25;;
787;SDS011;16074;42.708;23.312;2023-05-02T05:12:31;11.13;;;10.13;;
787;SDS011;16074;42.708;23.312;2023-05-02T05:14:59;11.48;;;10.27;;
787;SDS011;16074;42.708;23.312;2023-05-02T05:17:29;10.45;;;9.55;;
787;SDS011;16074;42.708;23.312;2023-05-02T05:19:59;11.57;;;9.02;;
787;SDS011;16074;42.708;23.312;2023-05-02T05:22:29;9.80;;;9.07;;
787;SDS011;16074;42.708;23.312;2023-05-02T05:24:57;10.70;;;9.73;;
787;SDS011;16074;42.708;23.312;2023-05-02T05:27:29;10.45;;;9.52;;
787;SDS011;16074;42.708;23.312;2023-05-02T05:29:57;9.18;;;8.32;;
787;SDS011;16074;42.708;23.312;2023-05-02T05:32:27;13.40;;;8.07;;
787;SDS011;16074;42.708;23.312;2023-05-02T05:34:55;7.95;;;7.25;;
787;SDS011;16074;42.708;23.312;2023-05-02T05:37:27;8.25;;;7.45;;
787;SDS011;16074;42.708;23.312;2023-05-02T05:39:57;8.55;;;7.65;;
787;SDS011;16074;42.708;23.312;2023-05-02T05:42:26;9.05;;;8.25;;
787;SDS011;16074;42.708;23.312;2023-05-02T05:44:58;9.38;;;8.55;;
787;SDS011;16074;42.708;23.312;2023-05-02T05:47:29;8.10;;;7.50;;
787;SDS011;16074;42.708;23.312;2023-05-02T05:49:58;12.68;;;8.23;;
787;SDS011;16074;42.708;23.312;2023-05-02T05:52:31;8.77;;;7.82;;
787;SDS011;16074;42.708;23.312;2023-05-02T05:55:01;7.53;;;6.93;;
787;SDS011;16074;42.708;23.312;2023-05-02T05:57:30;8.27;;;7.45;;
787;SDS011;16074;42.708;23.312;2023-05-02T05:59:59;8.13;;;7.43;;
787;SDS011;16074;42.708;23.312;2023-05-02T06:02:29;7.70;;;7.05;;
787;SDS011;16074;42.708;23.312;2023-05-02T06:04:58;8.13;;;7.10;;
787;SDS011;16074;42.708;23.312;2023-05-02T06:07:27;8.05;;;7.22;;
787;SDS011;16074;42.708;23.312;2023-05-02T06:09:57;9.63;;;8.05;;
787;SDS011;16074;42.708;23.312;2023-05-02T06:12:27;7.85;;;7.05;;
787;SDS011;16074;42.708;23.312;2023-05-02T06:14:55;7.50;;;6.90;;
787;SDS011;16074;42.708;23.312;2023-05-02T06:17:24;7.40;;;6.80;;
787;SDS011;16074;42.708;23.312;2023-05-02T06:19:52;10.20;;;8.00;;
787;SDS011;16074;42.708;23.312;2023-05-02T06:22:20;8.23;;;7.45;;
787;SDS011;16074;42.708;23.312;2023-05-02T06:24:49;7.30;;;6.70;;
787;SDS011;16074;42.708;23.312;2023-05-02T06:27:18;8.18;;;7.43;;
787;SDS011;16074;42.708;23.312;2023-05-02T06:29:49;8.23;;;7.47;;
787;SDS011;16074;42.708;23.312;2023-05-02T06:32:18;14.98;;;8.00;;
787;SDS011;16074;42.708;23.312;2023-05-02T06:34:47;7.82;;;7.05;;
787;SDS011;16074;42.708;23.312;2023-05-02T06:37:15;7.22;;;6.15;;
787;SDS011;16074;42.708;23.312;2023-05-02T06:39:43;6.80;;;6.10;;
787;SDS011;16074;42.708;23.312;2023-05-02T06:42:11;6.40;;;6.00;;
787;SDS011;16074;42.708;23.312;2023-05-02T06:44:41;6.75;;;6.25;;
787;SDS011;16074;42.708;23.312;2023-05-02T06:47:10;5.80;;;5.40;;
787;SDS011;16074;42.708;23.312;2023-05-02T06:49:38;6.47;;;6.07;;
787;SDS011;16074;42.708;23.312;2023-05-02T06:52:06;7.73;;;6.67;;
787;SDS011;16074;42.708;23.312;2023-05-02T06:54:35;6.70;;;6.10;;
787;SDS011;16074;42.708;23.312;2023-05-02T06:57:05;6.57;;;6.17;;
787;SDS011;16074;42.708;23.312;2023-05-02T06:59:33;6.33;;;5.83;;
787;SDS011;16074;42.708;23.312;2023-05-02T07:02:03;6.10;;;5.43;;
787;SDS011;16074;42.708;23.312;2023-05-02T07:04:31;8.27;;;7.30;;
787;SDS011;16074;42.708;23.312;2023-05-02T07:07:00;6.10;;;5.60;;
787;SDS011;16074;42.708;23.312;2023-05-02T07:09:29;7.23;;;5.33;;
787;SDS011;16074;42.708;23.312;2023-05-02T07:11:57;6.07;;;5.50;;
787;SDS011;16074;42.708;23.312;2023-05-02T07:14:26;5.87;;;5.37;;
787;SDS011;16074;42.708;23.312;2023-05-02T07:16:54;9.00;;;6.13;;
787;SDS011;16074;42.708;23.312;2023-05-02T07:19:24;8.33;;;5.80;;
787;SDS011;16074;42.708;23.312;2023-05-02T07:21:52;6.90;;;5.70;;
787;SDS011;16074;42.708;23.312;2023-05-02T07:24:21;5.40;;;5.00;;
787;SDS011;16074;42.708;23.312;2023-05-02T07:26:49;6.30;;;5.80;;
787;SDS011;16074;42.708;23.312;2023-05-02T07:29:17;8.00;;;5.73;;
787;SDS011;16074;42.708;23.312;2023-05-02T07:31:45;5.53;;;5.03;;
787;SDS011;16074;42.708;23.312;2023-05-02T07:34:14;6.37;;;5.77;;
787;SDS011;16074;42.708;23.312;2023-05-02T07:36:43;5.87;;;5.37;;
787;SDS011;16074;42.708;23.312;2023-05-02T07:39:11;5.63;;;5.30;;
787;SDS011;16074;42.708;23.312;2023-05-02T07:41:40;5.97;;;5.57;;
787;SDS011;16074;42.708;23.312;2023-05-02T07:44:08;6.40;;;5.60;;
787;SDS011;16074;42.708;23.312;2023-05-02T07:46:36;5.77;;;5.17;;
787;SDS011;16074;42.708;23.312;2023-05-02T07:49:05;7.23;;;5.70;;
787;SDS011;16074;42.708;23.312;2023-05-02T07:51:33;5.60;;;5.10;;
787;SDS011;16074;42.708;23.312;2023-05-02T07:54:02;4.87;;;4.57;;
787;SDS011;16074;42.708;23.312;2023-05-02T07:56:42;5.30;;;4.90;;
787;SDS011;16074;42.708;23.312;2023-05-02T07:59:10;5.23;;;4.73;;
787;SDS011;16074;42.708;23.312;2023-05-02T08:01:39;5.40;;;5.10;;
787;SDS011;16074;42.708;23.312;2023-05-02T08:04:08;5.23;;;4.83;;
787;SDS011;16074;42.708;23.312;2023-05-02T08:06:37;11.37;;;6.93;;
787;SDS011;16074;42.708;23.312;2023-05-02T08:09:07;6.67;;;5.00;;
787;SDS011;16074;42.708;23.312;2023-05-02T08:11:35;5.10;;;4.80;;
787;SDS011;16074;42.708;23.312;2023-05-02T08:14:03;5.53;;;5.13;;
787;SDS011;16074;42.708;23.312;2023-05-02T08:16:31;4.80;;;4.40;;
787;SDS011;16074;42.708;23.312;2023-05-02T08:19:00;5.07;;;4.77;;
787;SDS011;16074;42.708;23.312;2023-05-02T08:21:28;5.57;;;5.27;;
787;SDS011;16074;42.708;23.312;2023-05-02T08:23:57;4.80;;;4.40;;
787;SDS011;16074;42.708;23.312;2023-05-02T08:26:28;7.40;;;5.63;;
787;SDS011;16074;42.708;23.312;2023-05-02T08:28:56;4.87;;;4.57;;
787;SDS011;16074;42.708;23.312;2023-05-02T08:31:24;4.73;;;4.43;;
787;SDS011;16074;42.708;23.312;2023-05-02T08:33:52;5.43;;;5.13;;
787;SDS011;16074;42.708;23.312;2023-05-02T08:36:21;5.10;;;4.80;;
787;SDS011;16074;42.708;23.312;2023-05-02T08:38:49;5.40;;;4.90;;
787;SDS011;16074;42.708;23.312;2023-05-02T08:41:18;5.80;;;5.30;;
787;SDS011;16074;42.708;23.312;2023-05-02T08:43:48;5.00;;;4.60;;
787;SDS011;16074;42.708;23.312;2023-05-02T08:46:16;9.00;;;5.03;;
787;SDS011;16074;42.708;23.312;2023-05-02T08:48:45;5.50;;;5.10;;
787;SDS011;16074;42.708;23.312;2023-05-02T08:51:15;5.43;;;5.00;;
787;SDS011;16074;42.708;23.312;2023-05-02T08:53:45;4.93;;;4.53;;
787;SDS011;16074;42.708;23.312;2023-05-02T08:56:13;5.27;;;4.97;;
787;SDS011;16074;42.708;23.312;2023-05-02T08:58:42;5.50;;;5.00;;
787;SDS011;16074;42.708;23.312;2023-05-02T09:01:12;5.00;;;4.50;;
787;SDS011;16074;42.708;23.312;2023-05-02T09:03:42;5.27;;;4.97;;
787;SDS011;16074;42.708;23.312;2023-05-02T09:06:11;5.17;;;4.60;;
787;SDS011;16074;42.708;23.312;2023-05-02T09:08:42;4.60;;;4.30;;
787;SDS011;16074;42.708;23.312;2023-05-02T09:11:11;6.57;;;5.37;;
787;SDS011;16074;42.708;23.312;2023-05-02T09:13:40;4.57;;;4.17;;
787;SDS011;16074;42.708;23.312;2023-05-02T09:16:09;7.60;;;5.00;;
787;SDS011;16074;42.708;23.312;2023-05-02T09:18:40;4.70;;;4.40;;
787;SDS011;16074;42.708;23.312;2023-05-02T09:21:11;4.50;;;4.10;;
787;SDS011;16074;42.708;23.312;2023-05-02T09:23:41;4.50;;;4.20;;
787;SDS011;16074;42.708;23.312;2023-05-02T09:26:11;4.40;;;4.10;;
787;SDS011;16074;42.708;23.312;2023-05-02T09:28:41;4.70;;;4.43;;
787;SDS011;16074;42.708;23.312;2023-05-02T09:31:10;3.67;;;3.47;;
787;SDS011;16074;42.708;23.312;2023-05-02T09:33:57;4.00;;;3.70;;
787;SDS011;16074;42.708;23.312;2023-05-02T09:36:37;13.00;;;4.60;;
787;SDS011;16074;42.708;23.312;2023-05-02T09:39:07;4.73;;;4.43;;
787;SDS011;16074;42.708;23.312;2023-05-02T09:41:40;5.13;;;4.83;;
787;SDS011;16074;42.708;23.312;2023-05-02T09:44:09;4.67;;;4.20;;
787;SDS011;16074;42.708;23.312;2023-05-02T09:46:40;5.13;;;4.73;;
787;SDS011;16074;42.708;23.312;2023-05-02T09:49:09;5.27;;;4.87;;
787;SDS011;16074;42.708;23.312;2023-05-02T09:51:37;3.83;;;3.63;;
787;SDS011;16074;42.708;23.312;2023-05-02T09:54:05;4.77;;;4.37;;
787;SDS011;16074;42.708;23.312;2023-05-02T09:59:22;4.23;;;3.93;;
787;SDS011;16074;42.708;23.312;2023-05-02T10:01:56;4.87;;;4.17;;
787;SDS011;16074;42.708;23.312;2023-05-02T10:04:25;4.47;;;4.27;;
787;SDS011;16074;42.708;23.312;2023-05-02T10:06:55;4.40;;;4.10;;
787;SDS011;16074;42.708;23.312;2023-05-02T10:09:24;3.60;;;3.40;;
787;SDS011;16074;42.708;23.312;2023-05-02T10:11:54;5.40;;;4.40;;
787;SDS011;16074;42.708;23.312;2023-05-02T10:14:23;4.10;;;3.80;;
787;SDS011;16074;42.708;23.312;2023-05-02T10:16:59;4.17;;;3.87;;
787;SDS011;16074;42.708;23.312;2023-05-02T10:19:29;4.10;;;3.50;;
787;SDS011;16074;42.708;23.312;2023-05-02T10:22:03;6.63;;;5.17;;
787;SDS011;16074;42.708;23.312;2023-05-02T10:24:32;4.10;;;3.80;;
787;SDS011;16074;42.708;23.312;2023-05-02T10:27:00;3.77;;;3.57;;
787;SDS011;16074;42.708;23.312;2023-05-02T10:29:31;3.87;;;3.60;;
787;SDS011;16074;42.708;23.312;2023-05-02T10:32:02;3.90;;;3.70;;
787;SDS011;16074;42.708;23.312;2023-05-02T10:34:31;4.03;;;3.83;;
787;SDS011;16074;42.708;23.312;2023-05-02T10:37:00;5.50;;;3.30;;
787;SDS011;16074;42.708;23.312;2023-05-02T10:39:28;4.10;;;3.87;;
787;SDS011;16074;42.708;23.312;2023-05-02T10:41:59;4.40;;;4.03;;
787;SDS011;16074;42.708;23.312;2023-05-02T10:44:33;3.67;;;3.43;;
787;SDS011;16074;42.708;23.312;2023-05-02T10:49:56;6.33;;;4.30;;
787;SDS011;16074;42.708;23.312;2023-05-02T10:52:27;4.17;;;3.87;;
787;SDS011;16074;42.708;23.312;2023-05-02T11:00:50;4.80;;;3.67;;
787;SDS011;16074;42.708;23.312;2023-05-02T11:06:23;4.23;;;3.93;;
787;SDS011;16074;42.708;23.312;2023-05-02T11:08:52;4.87;;;4.57;;
787;SDS011;16074;42.708;23.312;2023-05-02T11:11:41;4.43;;;4.23;;
787;SDS011;16074;42.708;23.312;2023-05-02T11:14:10;3.70;;;3.40;;
787;SDS011;16074;42.708;23.312;2023-05-02T11:22:48;4.20;;;3.90;;
787;SDS011;16074;42.708;23.312;2023-05-02T11:34:42;3.90;;;3.70;;
787;SDS011;16074;42.708;23.312;2023-05-02T11:37:12;4.00;;;3.70;;
787;SDS011;16074;42.708;23.312;2023-05-02T11:39:42;4.50;;;3.57;;
787;SDS011;16074;42.708;23.312;2023-05-02T11:42:26;4.30;;;3.90;;
787;SDS011;16074;42.708;23.312;2023-05-02T11:44:55;5.97;;;3.90;;
787;SDS011;16074;42.708;23.312;2023-05-02T11:47:25;4.20;;;3.80;;
787;SDS011;16074;42.708;23.312;2023-05-02T11:49:55;4.30;;;4.00;;
787;SDS011;16074;42.708;23.312;2023-05-02T11:52:25;4.03;;;3.73;;
787;SDS011;16074;42.708;23.312;2023-05-02T11:54:55;5.27;;;4.77;;
787;SDS011;16074;42.708;23.312;2023-05-02T11:57:24;4.70;;;4.40;;
787;SDS011;16074;42.708;23.312;2023-05-02T11:59:53;4.20;;;3.90;;
787;SDS011;16074;42.708;23.312;2023-05-02T12:02:34;4.10;;;3.80;;
787;SDS011;16074;42.708;23.312;2023-05-02T12:05:04;4.53;;;4.13;;
787;SDS011;16074;42.708;23.312;2023-05-02T12:07:33;3.57;;;3.47;;
787;SDS011;16074;42.708;23.312;2023-05-02T12:10:05;5.03;;;3.50;;
787;SDS011;16074;42.708;23.312;2023-05-02T12:12:34;4.20;;;3.80;;
787;SDS011;16074;42.708;23.312;2023-05-02T12:15:04;3.40;;;3.10;;
787;SDS011;16074;42.708;23.312;2023-05-02T12:17:33;4.63;;;3.90;;
787;SDS011;16074;42.708;23.312;2023-05-02T12:20:05;5.30;;;3.60;;
787;SDS011;16074;42.708;23.312;2023-05-02T12:22:35;6.17;;;3.80;;
787;SDS011;16074;42.708;23.312;2023-05-02T12:25:06;4.23;;;3.93;;
787;SDS011;16074;42.708;23.312;2023-05-02T12:27:35;4.50;;;4.20;;
787;SDS011;16074;42.708;23.312;2023-05-02T12:30:04;4.10;;;3.83;;
787;SDS011;16074;42.708;23.312;2023-05-02T12:32:33;4.20;;;3.90;;
787;SDS011;16074;42.708;23.312;2023-05-02T12:35:03;5.03;;;3.87;;
787;SDS011;16074;42.708;23.312;2023-05-02T12:37:33;4.30;;;3.90;;
787;SDS011;16074;42.708;23.312;2023-05-02T12:40:01;4.00;;;3.80;;
787;SDS011;16074;42.708;23.312;2023-05-02T12:42:32;4.70;;;4.50;;
787;SDS011;16074;42.708;23.312;2023-05-02T12:45:01;3.93;;;3.67;;
787;SDS011;16074;42.708;23.312;2023-05-02T12:47:29;4.00;;;3.70;;
787;SDS011;16074;42.708;23.312;2023-05-02T12:50:11;4.30;;;3.53;;
787;SDS011;16074;42.708;23.312;2023-05-02T12:52:47;4.37;;;3.87;;
787;SDS011;16074;42.708;23.312;2023-05-02T12:55:16;6.37;;;3.50;;
787;SDS011;16074;42.708;23.312;2023-05-02T12:57:46;5.67;;;3.20;;
787;SDS011;16074;42.708;23.312;2023-05-02T13:00:15;3.00;;;2.90;;
787;SDS011;16074;42.708;23.312;2023-05-02T13:02:44;4.60;;;3.80;;
787;SDS011;16074;42.708;23.312;2023-05-02T13:05:12;3.73;;;3.43;;
787;SDS011;16074;42.708;23.312;2023-05-02T13:07:41;4.73;;;4.00;;
787;SDS011;16074;42.708;23.312;2023-05-02T13:10:09;5.20;;;3.90;;
787;SDS011;16074;42.708;23.312;2023-05-02T13:12:39;5.20;;;3.57;;
787;SDS011;16074;42.708;23.312;2023-05-02T13:15:09;3.83;;;3.43;;
787;SDS011;16074;42.708;23.312;2023-05-02T13:17:38;4.27;;;3.87;;
787;SDS011;16074;42.708;23.312;2023-05-02T13:20:07;5.60;;;4.23;;
787;SDS011;16074;42.708;23.312;2023-05-02T13:22:36;6.10;;;4.13;;
787;SDS011;16074;42.708;23.312;2023-05-02T13:25:05;3.47;;;3.27;;
787;SDS011;16074;42.708;23.312;2023-05-02T13:27:35;3.17;;;3.00;;
787;SDS011;16074;42.708;23.312;2023-05-02T13:30:03;4.20;;;3.93;;
787;SDS011;16074;42.708;23.312;2023-05-02T13:32:36;3.80;;;3.50;;
787;SDS011;16074;42.708;23.312;2023-05-02T13:35:06;3.80;;;3.50;;
787;SDS011;16074;42.708;23.312;2023-05-02T13:37:35;4.40;;;3.90;;
787;SDS011;16074;42.708;23.312;2023-05-02T13:40:03;3.10;;;3.00;;
787;SDS011;16074;42.708;23.312;2023-05-02T13:42:33;3.37;;;3.10;;
787;SDS011;16074;42.708;23.312;2023-05-02T13:45:02;3.70;;;3.37;;
787;SDS011;16074;42.708;23.312;2023-05-02T13:47:32;4.33;;;4.00;;
787;SDS011;16074;42.708;23.312;2023-05-02T13:50:02;3.30;;;3.10;;
787;SDS011;16074;42.708;23.312;2023-05-02T13:52:30;3.57;;;3.37;;
787;SDS011;16074;42.708;23.312;2023-05-02T13:54:58;3.73;;;3.43;;
787;SDS011;16074;42.708;23.312;2023-05-02T13:57:27;3.53;;;3.23;;
787;SDS011;16074;42.708;23.312;2023-05-02T13:59:55;4.10;;;3.80;;
787;SDS011;16074;42.708;23.312;2023-05-02T14:02:23;3.30;;;3.10;;
787;SDS011;16074;42.708;23.312;2023-05-02T14:04:52;3.30;;;3.10;;
787;SDS011;16074;42.708;23.312;2023-05-02T14:07:21;3.93;;;3.73;;
787;SDS011;16074;42.708;23.312;2023-05-02T14:09:50;3.83;;;3.60;;
787;SDS011;16074;42.708;23.312;2023-05-02T14:12:18;3.57;;;3.27;;
787;SDS011;16074;42.708;23.312;2023-05-02T14:14:46;3.70;;;3.40;;
787;SDS011;16074;42.708;23.312;2023-05-02T14:17:15;5.33;;;3.90;;
787;SDS011;16074;42.708;23.312;2023-05-02T14:19:43;3.60;;;3.40;;
787;SDS011;16074;42.708;23.312;2023-05-02T14:22:11;3.20;;;2.90;;
787;SDS011;16074;42.708;23.312;2023-05-02T14:24:41;5.20;;;3.40;;
787;SDS011;16074;42.708;23.312;2023-05-02T14:27:09;3.20;;;3.00;;
787;SDS011;16074;42.708;23.312;2023-05-02T14:29:43;3.80;;;3.50;;
787;SDS011;16074;42.708;23.312;2023-05-02T14:32:12;5.23;;;3.93;;
787;SDS011;16074;42.708;23.312;2023-05-02T14:34:40;4.10;;;3.07;;
787;SDS011;16074;42.708;23.312;2023-05-02T14:37:09;3.53;;;3.23;;
787;SDS011;16074;42.708;23.312;2023-05-02T14:39:37;3.53;;;3.23;;
787;SDS011;16074;42.708;23.312;2023-05-02T14:42:07;3.53;;;3.23;;
787;SDS011;16074;42.708;23.312;2023-05-02T14:44:35;2.80;;;2.60;;
787;SDS011;16074;42.708;23.312;2023-05-02T14:47:03;3.77;;;3.40;;
787;SDS011;16074;42.708;23.312;2023-05-02T14:49:32;3.77;;;3.47;;
787;SDS011;16074;42.708;23.312;2023-05-02T14:52:00;3.13;;;2.93;;
787;SDS011;16074;42.708;23.312;2023-05-02T14:54:29;2.80;;;2.70;;
787;SDS011;16074;42.708;23.312;2023-05-02T14:56:57;3.93;;;3.33;;
787;SDS011;16074;42.708;23.312;2023-05-02T14:59:28;3.67;;;3.47;;
787;SDS011;16074;42.708;23.312;2023-05-02T15:01:57;4.07;;;3.00;;
787;SDS011;16074;42.708;23.312;2023-05-02T15:04:25;3.97;;;3.67;;
787;SDS011;16074;42.708;23.312;2023-05-02T15:06:54;3.40;;;3.10;;
787;SDS011;16074;42.708;23.312;2023-05-02T15:09:24;3.00;;;2.90;;
787;SDS011;16074;42.708;23.312;2023-05-02T15:11:52;3.50;;;3.30;;
787;SDS011;16074;42.708;23.312;2023-05-02T15:14:20;5.10;;;3.70;;
787;SDS011;16074;42.708;23.312;2023-05-02T15:16:50;3.50;;;3.20;;
787;SDS011;16074;42.708;23.312;2023-05-02T15:19:19;4.13;;;3.67;;
787;SDS011;16074;42.708;23.312;2023-05-02T15:21:48;4.67;;;2.60;;
787;SDS011;16074;42.708;23.312;2023-05-02T15:24:18;2.97;;;2.77;;
787;SDS011;16074;42.708;23.312;2023-05-02T15:26:47;4.10;;;3.10;;
787;SDS011;16074;42.708;23.312;2023-05-02T15:29:15;3.27;;;3.07;;
787;SDS011;16074;42.708;23.312;2023-05-02T15:31:43;3.90;;;3.10;;
787;SDS011;16074;42.708;23.312;2023-05-02T15:34:13;2.73;;;2.53;;
787;SDS011;16074;42.708;23.312;2023-05-02T15:36:41;2.47;;;2.27;;
787;SDS011;16074;42.708;23.312;2023-05-02T15:39:10;2.73;;;2.53;;
787;SDS011;16074;42.708;23.312;2023-05-02T15:41:38;3.20;;;2.90;;
787;SDS011;16074;42.708;23.312;2023-05-02T15:44:07;3.20;;;2.90;;
787;SDS011;16074;42.708;23.312;2023-05-02T15:46:36;2.77;;;2.57;;